sensor_id;sensor_type;location;lat;lon;timestamp;P1;durP1;ratioP1;P2;durP2;ratioP2
56599;SDS011;51832;48.152;11.530;2024-03-07T00:04:21;14.60;;;8.35;;
56599;SDS011;51832;48.152;11.530;2024-03-07T00:09:22;16.50;;;8.93;;
56599;SDS011;51832;48.152;11.530;2024-03-07T00:14:24;19.10;;;10.07;;
56599;SDS011;51832;48.152;11.530;2024-03-07T00:19:27;21.30;;;11.13;;
56599;SDS011;51832;48.152;11.530;2024-03-07T00:24:27;22.88;;;12.05;;
56599;SDS011;51832;48.152;11.530;2024-03-07T00:29:27;22.60;;;10.73;;
56599;SDS011;51832;48.152;11.530;2024-03-07T00:34:28;21.63;;;10.57;;
56599;SDS011;51832;48.152;11.530;2024-03-07T00:39:28;22.42;;;11.20;;
56599;SDS011;51832;48.152;11.530;2024-03-07T00:44:29;23.45;;;11.20;;
56599;SDS011;51832;48.152;11.530;2024-03-07T00:49:29;27.98;;;11.85;;
56599;SDS011;51832;48.152;11.530;2024-03-07T00:54:30;23.40;;;11.57;;
56599;SDS011;51832;48.152;11.530;2024-03-07T00:59:30;25.95;;;12.38;;
56599;SDS011;51832;48.152;11.530;2024-03-07T01:04:31;22.63;;;11.70;;
56599;SDS011;51832;48.152;11.530;2024-03-07T01:09:33;25.88;;;11.40;;
56599;SDS011;51832;48.152;11.530;2024-03-07T01:14:35;26.23;;;12.07;;
56599;SDS011;51832;48.152;11.530;2024-03-07T01:19:35;29.95;;;12.68;;
56599;SDS011;51832;48.152;11.530;2024-03-07T01:24:37;23.35;;;12.50;;
56599;SDS011;51832;48.152;11.530;2024-03-07T01:29:39;24.70;;;11.98;;
56599;SDS011;51832;48.152;11.530;2024-03-07T01:34:44;24.90;;;12.32;;
56599;SDS011;51832;48.152;11.530;2024-03-07T01:39:45;28.40;;;13.18;;
56599;SDS011;51832;48.152;11.530;2024-03-07T01:44:46;26.58;;;13.13;;
56599;SDS011;51832;48.152;11.530;2024-03-07T01:49:46;28.60;;;13.32;;
56599;SDS011;51832;48.152;11.530;2024-03-07T01:54:48;30.77;;;14.18;;
56599;SDS011;51832;48.152;11.530;2024-03-07T01:59:49;29.90;;;14.55;;
56599;SDS011;51832;48.152;11.530;2024-03-07T02:04:50;30.85;;;13.80;;
56599;SDS011;51832;48.152;11.530;2024-03-07T02:09:58;26.98;;;13.48;;
56599;SDS011;51832;48.152;11.530;2024-03-07T02:15:00;27.52;;;13.18;;
56599;SDS011;51832;48.152;11.530;2024-03-07T02:20:00;32.03;;;13.52;;
56599;SDS011;51832;48.152;11.530;2024-03-07T02:25:02;28.88;;;13.40;;
56599;SDS011;51832;48.152;11.530;2024-03-07T02:30:03;31.20;;;15.35;;
56599;SDS011;51832;48.152;11.530;2024-03-07T02:35:04;34.63;;;15.40;;
56599;SDS011;51832;48.152;11.530;2024-03-07T02:40:05;33.03;;;15.73;;
56599;SDS011;51832;48.152;11.530;2024-03-07T02:45:07;31.40;;;15.93;;
56599;SDS011;51832;48.152;11.530;2024-03-07T02:50:08;33.75;;;16.23;;
56599;SDS011;51832;48.152;11.530;2024-03-07T02:55:10;33.60;;;15.25;;
56599;SDS011;51832;48.152;11.530;2024-03-07T03:00:10;30.98;;;14.90;;
56599;SDS011;51832;48.152;11.530;2024-03-07T03:05:20;31.08;;;14.98;;
56599;SDS011;51832;48.152;11.530;2024-03-07T03:10:24;33.13;;;14.82;;
56599;SDS011;51832;48.152;11.530;2024-03-07T03:15:26;29.75;;;14.10;;
56599;SDS011;51832;48.152;11.530;2024-03-07T03:20:26;36.03;;;15.50;;
56599;SDS011;51832;48.152;11.530;2024-03-07T03:25:39;36.92;;;15.82;;
56599;SDS011;51832;48.152;11.530;2024-03-07T03:30:40;35.45;;;16.58;;
56599;SDS011;51832;48.152;11.530;2024-03-07T03:35:43;33.15;;;15.77;;
56599;SDS011;51832;48.152;11.530;2024-03-07T03:40:44;37.92;;;16.95;;
56599;SDS011;51832;48.152;11.530;2024-03-07T03:45:45;37.83;;;18.08;;
56599;SDS011;51832;48.152;11.530;2024-03-07T03:50:47;36.37;;;17.83;;
56599;SDS011;51832;48.152;11.530;2024-03-07T03:55:48;38.78;;;17.20;;
56599;SDS011;51832;48.152;11.530;2024-03-07T04:00:49;41.47;;;16.67;;
56599;SDS011;51832;48.152;11.530;2024-03-07T04:05:49;43.05;;;18.65;;
56599;SDS011;51832;48.152;11.530;2024-03-07T04:10:50;43.13;;;19.42;;
56599;SDS011;51832;48.152;11.530;2024-03-07T04:15:50;40.08;;;19.48;;
56599;SDS011;51832;48.152;11.530;2024-03-07T04:20:51;45.33;;;20.85;;
56599;SDS011;51832;48.152;11.530;2024-03-07T04:25:51;48.55;;;20.50;;
56599;SDS011;51832;48.152;11.530;2024-03-07T04:30:52;37.35;;;16.45;;
56599;SDS011;51832;48.152;11.530;2024-03-07T04:35:53;36.47;;;18.90;;
56599;SDS011;51832;48.152;11.530;2024-03-07T04:40:53;35.90;;;18.38;;
56599;SDS011;51832;48.152;11.530;2024-03-07T04:45:54;40.97;;;19.75;;
56599;SDS011;51832;48.152;11.530;2024-03-07T04:50:55;36.60;;;19.25;;
56599;SDS011;51832;48.152;11.530;2024-03-07T04:55:57;41.25;;;20.30;;
56599;SDS011;51832;48.152;11.530;2024-03-07T05:00:57;43.97;;;20.23;;
56599;SDS011;51832;48.152;11.530;2024-03-07T05:05:58;45.13;;;21.70;;
56599;SDS011;51832;48.152;11.530;2024-03-07T05:11:00;43.97;;;20.20;;
56599;SDS011;51832;48.152;11.530;2024-03-07T05:16:00;43.88;;;21.30;;
56599;SDS011;51832;48.152;11.530;2024-03-07T05:21:01;47.17;;;21.00;;
56599;SDS011;51832;48.152;11.530;2024-03-07T05:26:21;48.58;;;21.85;;
56599;SDS011;51832;48.152;11.530;2024-03-07T05:31:22;48.92;;;21.98;;
56599;SDS011;51832;48.152;11.530;2024-03-07T05:36:22;48.00;;;22.40;;
56599;SDS011;51832;48.152;11.530;2024-03-07T05:41:23;52.60;;;22.52;;
56599;SDS011;51832;48.152;11.530;2024-03-07T05:46:23;49.28;;;21.88;;
56599;SDS011;51832;48.152;11.530;2024-03-07T05:51:24;44.80;;;20.98;;
56599;SDS011;51832;48.152;11.530;2024-03-07T05:56:24;45.25;;;21.20;;
56599;SDS011;51832;48.152;11.530;2024-03-07T06:01:25;44.72;;;20.65;;
56599;SDS011;51832;48.152;11.530;2024-03-07T06:06:27;48.92;;;20.52;;
56599;SDS011;51832;48.152;11.530;2024-03-07T06:11:31;49.45;;;21.85;;
56599;SDS011;51832;48.152;11.530;2024-03-07T06:16:33;53.88;;;22.77;;
56599;SDS011;51832;48.152;11.530;2024-03-07T06:21:37;47.10;;;20.65;;
56599;SDS011;51832;48.152;11.530;2024-03-07T06:26:41;49.28;;;21.33;;
56599;SDS011;51832;48.152;11.530;2024-03-07T06:31:41;46.65;;;21.02;;
56599;SDS011;51832;48.152;11.530;2024-03-07T06:36:42;49.97;;;21.70;;
56599;SDS011;51832;48.152;11.530;2024-03-07T06:41:43;49.40;;;22.48;;
56599;SDS011;51832;48.152;11.530;2024-03-07T06:46:45;47.13;;;21.75;;
56599;SDS011;51832;48.152;11.530;2024-03-07T06:51:46;49.38;;;21.52;;
56599;SDS011;51832;48.152;11.530;2024-03-07T06:56:46;47.85;;;22.13;;
56599;SDS011;51832;48.152;11.530;2024-03-07T07:01:46;48.33;;;22.50;;
56599;SDS011;51832;48.152;11.530;2024-03-07T07:06:47;47.58;;;21.92;;
56599;SDS011;51832;48.152;11.530;2024-03-07T07:11:47;51.92;;;22.02;;
56599;SDS011;51832;48.152;11.530;2024-03-07T07:16:48;49.78;;;22.00;;
56599;SDS011;51832;48.152;11.530;2024-03-07T07:21:48;49.50;;;22.42;;
56599;SDS011;51832;48.152;11.530;2024-03-07T07:26:54;50.15;;;22.27;;
56599;SDS011;51832;48.152;11.530;2024-03-07T07:31:54;52.28;;;22.63;;
56599;SDS011;51832;48.152;11.530;2024-03-07T07:36:55;49.85;;;22.48;;
56599;SDS011;51832;48.152;11.530;2024-03-07T07:41:55;46.88;;;21.77;;
56599;SDS011;51832;48.152;11.530;2024-03-07T07:46:56;49.22;;;23.08;;
56599;SDS011;51832;48.152;11.530;2024-03-07T07:51:57;45.92;;;22.35;;
56599;SDS011;51832;48.152;11.530;2024-03-07T07:56:57;50.22;;;21.92;;
56599;SDS011;51832;48.152;11.530;2024-03-07T08:01:57;52.65;;;24.17;;
56599;SDS011;51832;48.152;11.530;2024-03-07T08:06:58;48.45;;;23.27;;
56599;SDS011;51832;48.152;11.530;2024-03-07T08:11:58;43.35;;;21.08;;
56599;SDS011;51832;48.152;11.530;2024-03-07T08:17:02;46.83;;;21.77;;
56599;SDS011;51832;48.152;11.530;2024-03-07T08:22:03;48.20;;;22.15;;
56599;SDS011;51832;48.152;11.530;2024-03-07T08:27:03;50.85;;;23.00;;
56599;SDS011;51832;48.152;11.530;2024-03-07T08:32:04;49.30;;;21.58;;
56599;SDS011;51832;48.152;11.530;2024-03-07T08:37:05;45.50;;;21.70;;
56599;SDS011;51832;48.152;11.530;2024-03-07T08:42:06;46.85;;;20.95;;
56599;SDS011;51832;48.152;11.530;2024-03-07T08:47:07;51.72;;;22.52;;
56599;SDS011;51832;48.152;11.530;2024-03-07T08:52:07;44.45;;;21.80;;
56599;SDS011;51832;48.152;11.530;2024-03-07T08:57:08;50.13;;;23.77;;
56599;SDS011;51832;48.152;11.530;2024-03-07T09:02:09;50.90;;;23.83;;
56599;SDS011;51832;48.152;11.530;2024-03-07T09:07:11;51.57;;;23.50;;
56599;SDS011;51832;48.152;11.530;2024-03-07T09:12:14;49.45;;;22.42;;
56599;SDS011;51832;48.152;11.530;2024-03-07T09:17:15;45.75;;;20.60;;
56599;SDS011;51832;48.152;11.530;2024-03-07T09:22:16;49.95;;;21.63;;
56599;SDS011;51832;48.152;11.530;2024-03-07T09:27:17;48.63;;;20.75;;
56599;SDS011;51832;48.152;11.530;2024-03-07T09:32:20;40.92;;;19.20;;
56599;SDS011;51832;48.152;11.530;2024-03-07T09:37:22;41.40;;;20.60;;
56599;SDS011;51832;48.152;11.530;2024-03-07T09:42:23;43.60;;;19.25;;
56599;SDS011;51832;48.152;11.530;2024-03-07T09:47:26;39.77;;;20.00;;
56599;SDS011;51832;48.152;11.530;2024-03-07T09:52:27;36.78;;;19.23;;
56599;SDS011;51832;48.152;11.530;2024-03-07T09:57:29;43.30;;;20.02;;
56599;SDS011;51832;48.152;11.530;2024-03-07T10:02:34;44.80;;;20.35;;
56599;SDS011;51832;48.152;11.530;2024-03-07T10:07:41;38.75;;;19.27;;
56599;SDS011;51832;48.152;11.530;2024-03-07T10:12:42;38.08;;;18.58;;
56599;SDS011;51832;48.152;11.530;2024-03-07T10:17:44;37.92;;;17.70;;
56599;SDS011;51832;48.152;11.530;2024-03-07T10:22:45;39.10;;;18.42;;
56599;SDS011;51832;48.152;11.530;2024-03-07T10:27:47;35.35;;;18.67;;
56599;SDS011;51832;48.152;11.530;2024-03-07T10:32:57;36.53;;;19.67;;
56599;SDS011;51832;48.152;11.530;2024-03-07T10:37:59;33.60;;;17.95;;
56599;SDS011;51832;48.152;11.530;2024-03-07T10:43:07;42.03;;;18.25;;
56599;SDS011;51832;48.152;11.530;2024-03-07T11:03:45;36.50;;;18.45;;
56599;SDS011;51832;48.152;11.530;2024-03-07T11:08:46;36.13;;;17.58;;
56599;SDS011;51832;48.152;11.530;2024-03-07T11:13:47;37.10;;;17.13;;
56599;SDS011;51832;48.152;11.530;2024-03-07T11:24:29;32.70;;;17.13;;
56599;SDS011;51832;48.152;11.530;2024-03-07T11:29:48;32.10;;;16.73;;
56599;SDS011;51832;48.152;11.530;2024-03-07T11:34:57;33.38;;;16.60;;
56599;SDS011;51832;48.152;11.530;2024-03-07T11:39:58;34.60;;;17.17;;
56599;SDS011;51832;48.152;11.530;2024-03-07T11:45:08;31.30;;;16.38;;
56599;SDS011;51832;48.152;11.530;2024-03-07T11:50:08;30.42;;;16.42;;
56599;SDS011;51832;48.152;11.530;2024-03-07T12:00:13;34.10;;;16.27;;
56599;SDS011;51832;48.152;11.530;2024-03-07T12:05:15;32.10;;;15.35;;
56599;SDS011;51832;48.152;11.530;2024-03-07T12:10:16;30.63;;;15.27;;
56599;SDS011;51832;48.152;11.530;2024-03-07T12:15:24;34.85;;;17.83;;
56599;SDS011;51832;48.152;11.530;2024-03-07T12:20:25;34.03;;;16.52;;
56599;SDS011;51832;48.152;11.530;2024-03-07T12:25:27;30.52;;;15.85;;
56599;SDS011;51832;48.152;11.530;2024-03-07T12:30:29;33.20;;;15.50;;
56599;SDS011;51832;48.152;11.530;2024-03-07T12:35:33;32.97;;;16.15;;
56599;SDS011;51832;48.152;11.530;2024-03-07T12:40:33;34.40;;;16.33;;
56599;SDS011;51832;48.152;11.530;2024-03-07T12:45:34;32.85;;;15.38;;
56599;SDS011;51832;48.152;11.530;2024-03-07T12:50:34;33.25;;;16.48;;
56599;SDS011;51832;48.152;11.530;2024-03-07T12:55:35;35.58;;;17.08;;
56599;SDS011;51832;48.152;11.530;2024-03-07T13:00:36;34.28;;;16.60;;
56599;SDS011;51832;48.152;11.530;2024-03-07T13:05:37;32.65;;;15.10;;
56599;SDS011;51832;48.152;11.530;2024-03-07T13:10:43;32.22;;;15.23;;
56599;SDS011;51832;48.152;11.530;2024-03-07T13:15:44;32.08;;;15.95;;
56599;SDS011;51832;48.152;11.530;2024-03-07T13:20:47;36.50;;;17.90;;
56599;SDS011;51832;48.152;11.530;2024-03-07T13:25:48;30.67;;;16.05;;
56599;SDS011;51832;48.152;11.530;2024-03-07T13:30:48;33.78;;;15.73;;
56599;SDS011;51832;48.152;11.530;2024-03-07T13:35:49;30.35;;;15.95;;
56599;SDS011;51832;48.152;11.530;2024-03-07T13:40:50;31.38;;;15.45;;
56599;SDS011;51832;48.152;11.530;2024-03-07T13:45:50;28.60;;;14.38;;
56599;SDS011;51832;48.152;11.530;2024-03-07T13:50:51;27.48;;;14.48;;
56599;SDS011;51832;48.152;11.530;2024-03-07T14:06:52;28.30;;;13.98;;
56599;SDS011;51832;48.152;11.530;2024-03-07T14:12:21;29.02;;;14.93;;
56599;SDS011;51832;48.152;11.530;2024-03-07T14:39:00;31.35;;;16.10;;
56599;SDS011;51832;48.152;11.530;2024-03-07T14:44:03;32.55;;;15.98;;
56599;SDS011;51832;48.152;11.530;2024-03-07T14:49:05;33.37;;;17.47;;
56599;SDS011;51832;48.152;11.530;2024-03-07T14:54:06;31.58;;;15.25;;
56599;SDS011;51832;48.152;11.530;2024-03-07T14:59:07;31.58;;;16.50;;
56599;SDS011;51832;48.152;11.530;2024-03-07T15:04:09;27.73;;;14.50;;
56599;SDS011;51832;48.152;11.530;2024-03-07T15:09:11;27.83;;;15.47;;
56599;SDS011;51832;48.152;11.530;2024-03-07T15:14:13;31.25;;;15.18;;
56599;SDS011;51832;48.152;11.530;2024-03-07T15:19:15;29.27;;;15.38;;
56599;SDS011;51832;48.152;11.530;2024-03-07T15:24:16;30.30;;;15.02;;
56599;SDS011;51832;48.152;11.530;2024-03-07T15:29:16;27.00;;;14.15;;
56599;SDS011;51832;48.152;11.530;2024-03-07T15:34:21;20.48;;;11.63;;
56599;SDS011;51832;48.152;11.530;2024-03-07T15:39:22;22.50;;;11.52;;
56599;SDS011;51832;48.152;11.530;2024-03-07T15:44:30;21.17;;;11.07;;
56599;SDS011;51832;48.152;11.530;2024-03-07T15:49:30;18.45;;;9.90;;
56599;SDS011;51832;48.152;11.530;2024-03-07T15:54:31;22.77;;;10.88;;
56599;SDS011;51832;48.152;11.530;2024-03-07T15:59:31;20.63;;;10.57;;
56599;SDS011;51832;48.152;11.530;2024-03-07T16:04:32;18.02;;;10.38;;
56599;SDS011;51832;48.152;11.530;2024-03-07T16:09:33;20.77;;;10.88;;
56599;SDS011;51832;48.152;11.530;2024-03-07T16:14:34;17.92;;;10.43;;
56599;SDS011;51832;48.152;11.530;2024-03-07T16:19:34;17.73;;;9.98;;
56599;SDS011;51832;48.152;11.530;2024-03-07T16:24:35;17.77;;;9.57;;
56599;SDS011;51832;48.152;11.530;2024-03-07T16:29:37;16.95;;;9.80;;
56599;SDS011;51832;48.152;11.530;2024-03-07T16:34:38;17.13;;;9.80;;
56599;SDS011;51832;48.152;11.530;2024-03-07T16:39:38;16.45;;;9.02;;
56599;SDS011;51832;48.152;11.530;2024-03-07T16:44:43;17.52;;;8.35;;
56599;SDS011;51832;48.152;11.530;2024-03-07T16:49:43;15.90;;;8.55;;
56599;SDS011;51832;48.152;11.530;2024-03-07T16:54:44;14.38;;;8.25;;
56599;SDS011;51832;48.152;11.530;2024-03-07T16:59:45;14.40;;;8.77;;
56599;SDS011;51832;48.152;11.530;2024-03-07T17:04:48;14.63;;;7.25;;
56599;SDS011;51832;48.152;11.530;2024-03-07T17:09:48;11.93;;;7.32;;
56599;SDS011;51832;48.152;11.530;2024-03-07T17:14:50;15.88;;;8.70;;
56599;SDS011;51832;48.152;11.530;2024-03-07T17:19:50;14.35;;;7.90;;
56599;SDS011;51832;48.152;11.530;2024-03-07T17:24:51;14.65;;;7.95;;
56599;SDS011;51832;48.152;11.530;2024-03-07T17:29:53;15.82;;;8.50;;
56599;SDS011;51832;48.152;11.530;2024-03-07T17:34:53;15.60;;;9.13;;
56599;SDS011;51832;48.152;11.530;2024-03-07T17:39:55;18.45;;;9.32;;
56599;SDS011;51832;48.152;11.530;2024-03-07T17:44:56;18.60;;;10.07;;
56599;SDS011;51832;48.152;11.530;2024-03-07T17:49:57;16.05;;;9.25;;
56599;SDS011;51832;48.152;11.530;2024-03-07T17:54:58;15.80;;;9.55;;
56599;SDS011;51832;48.152;11.530;2024-03-07T17:59:59;14.98;;;9.20;;
56599;SDS011;51832;48.152;11.530;2024-03-07T18:05:00;16.30;;;9.40;;
56599;SDS011;51832;48.152;11.530;2024-03-07T18:10:09;16.52;;;10.35;;
56599;SDS011;51832;48.152;11.530;2024-03-07T18:20:18;20.52;;;10.52;;
56599;SDS011;51832;48.152;11.530;2024-03-07T18:25:20;22.43;;;12.73;;
56599;SDS011;51832;48.152;11.530;2024-03-07T18:30:24;21.48;;;10.93;;
56599;SDS011;51832;48.152;11.530;2024-03-07T18:35:25;19.90;;;11.30;;
56599;SDS011;51832;48.152;11.530;2024-03-07T18:40:27;22.48;;;11.55;;
56599;SDS011;51832;48.152;11.530;2024-03-07T18:45:28;22.48;;;10.77;;
56599;SDS011;51832;48.152;11.530;2024-03-07T18:50:30;19.80;;;11.35;;
56599;SDS011;51832;48.152;11.530;2024-03-07T18:55:31;21.42;;;11.75;;
56599;SDS011;51832;48.152;11.530;2024-03-07T19:00:31;19.33;;;11.10;;
56599;SDS011;51832;48.152;11.530;2024-03-07T19:05:33;19.33;;;11.07;;
56599;SDS011;51832;48.152;11.530;2024-03-07T19:10:37;23.20;;;12.25;;
56599;SDS011;51832;48.152;11.530;2024-03-07T19:15:37;21.65;;;11.25;;
56599;SDS011;51832;48.152;11.530;2024-03-07T19:20:40;16.73;;;10.30;;
56599;SDS011;51832;48.152;11.530;2024-03-07T19:25:41;20.63;;;11.47;;
56599;SDS011;51832;48.152;11.530;2024-03-07T19:30:49;20.88;;;11.93;;
56599;SDS011;51832;48.152;11.530;2024-03-07T19:35:50;18.88;;;10.43;;
56599;SDS011;51832;48.152;11.530;2024-03-07T19:40:55;21.42;;;10.77;;
56599;SDS011;51832;48.152;11.530;2024-03-07T19:45:55;20.33;;;10.82;;
56599;SDS011;51832;48.152;11.530;2024-03-07T19:50:56;18.17;;;10.27;;
56599;SDS011;51832;48.152;11.530;2024-03-07T19:55:58;18.95;;;10.55;;
56599;SDS011;51832;48.152;11.530;2024-03-07T20:00:59;24.15;;;11.85;;
56599;SDS011;51832;48.152;11.530;2024-03-07T20:06:02;25.10;;;12.93;;
56599;SDS011;51832;48.152;11.530;2024-03-07T20:11:03;20.17;;;11.43;;
56599;SDS011;51832;48.152;11.530;2024-03-07T20:16:05;21.95;;;11.13;;
56599;SDS011;51832;48.152;11.530;2024-03-07T20:21:07;22.42;;;11.75;;
56599;SDS011;51832;48.152;11.530;2024-03-07T20:26:09;21.13;;;10.30;;
56599;SDS011;51832;48.152;11.530;2024-03-07T20:31:10;21.00;;;11.35;;
56599;SDS011;51832;48.152;11.530;2024-03-07T20:36:10;23.65;;;10.80;;
56599;SDS011;51832;48.152;11.530;2024-03-07T20:41:11;21.80;;;11.38;;
56599;SDS011;51832;48.152;11.530;2024-03-07T20:46:11;20.65;;;11.13;;
56599;SDS011;51832;48.152;11.530;2024-03-07T20:51:12;25.73;;;12.98;;
56599;SDS011;51832;48.152;11.530;2024-03-07T20:56:14;23.30;;;11.48;;
56599;SDS011;51832;48.152;11.530;2024-03-07T21:01:16;25.03;;;11.57;;
56599;SDS011;51832;48.152;11.530;2024-03-07T21:06:17;24.20;;;11.77;;
56599;SDS011;51832;48.152;11.530;2024-03-07T21:11:23;22.08;;;11.65;;
56599;SDS011;51832;48.152;11.530;2024-03-07T21:16:27;21.92;;;11.32;;
56599;SDS011;51832;48.152;11.530;2024-03-07T21:21:28;23.08;;;11.98;;
56599;SDS011;51832;48.152;11.530;2024-03-07T21:26:28;25.02;;;12.05;;
56599;SDS011;51832;48.152;11.530;2024-03-07T21:31:29;23.52;;;12.40;;
56599;SDS011;51832;48.152;11.530;2024-03-07T21:36:30;25.65;;;13.15;;
56599;SDS011;51832;48.152;11.530;2024-03-07T21:41:34;26.10;;;13.27;;
56599;SDS011;51832;48.152;11.530;2024-03-07T21:46:39;23.05;;;12.18;;
56599;SDS011;51832;48.152;11.530;2024-03-07T21:51:45;24.05;;;12.18;;
56599;SDS011;51832;48.152;11.530;2024-03-07T21:56:46;26.35;;;12.43;;
56599;SDS011;51832;48.152;11.530;2024-03-07T22:01:47;23.23;;;11.77;;
56599;SDS011;51832;48.152;11.530;2024-03-07T22:06:47;24.80;;;11.40;;
56599;SDS011;51832;48.152;11.530;2024-03-07T22:11:48;24.58;;;11.65;;
56599;SDS011;51832;48.152;11.530;2024-03-07T22:16:54;23.20;;;10.90;;
56599;SDS011;51832;48.152;11.530;2024-03-07T22:21:56;20.50;;;10.32;;
56599;SDS011;51832;48.152;11.530;2024-03-07T22:26:56;21.67;;;10.90;;
56599;SDS011;51832;48.152;11.530;2024-03-07T22:31:57;19.75;;;10.32;;
56599;SDS011;51832;48.152;11.530;2024-03-07T22:36:58;22.50;;;10.95;;
56599;SDS011;51832;48.152;11.530;2024-03-07T22:41:59;23.45;;;11.13;;
56599;SDS011;51832;48.152;11.530;2024-03-07T22:46:59;20.85;;;11.02;;
56599;SDS011;51832;48.152;11.530;2024-03-07T22:52:00;19.67;;;10.63;;
56599;SDS011;51832;48.152;11.530;2024-03-07T22:57:01;18.30;;;10.25;;
56599;SDS011;51832;48.152;11.530;2024-03-07T23:02:01;20.17;;;10.45;;
56599;SDS011;51832;48.152;11.530;2024-03-07T23:07:02;20.75;;;10.82;;
56599;SDS011;51832;48.152;11.530;2024-03-07T23:12:04;21.77;;;9.80;;
56599;SDS011;51832;48.152;11.530;2024-03-07T23:17:09;17.33;;;9.45;;
56599;SDS011;51832;48.152;11.530;2024-03-07T23:22:11;17.63;;;10.02;;
56599;SDS011;51832;48.152;11.530;2024-03-07T23:27:11;16.35;;;9.02;;
56599;SDS011;51832;48.152;11.530;2024-03-07T23:32:12;17.73;;;8.77;;
56599;SDS011;51832;48.152;11.530;2024-03-07T23:37:12;15.40;;;8.27;;
56599;SDS011;51832;48.152;11.530;2024-03-07T23:42:14;15.50;;;9.30;;
56599;SDS011;51832;48.152;11.530;2024-03-07T23:47:14;16.73;;;8.40;;
56599;SDS011;51832;48.152;11.530;2024-03-07T23:52:16;15.32;;;8.52;;
56599;SDS011;51832;48.152;11.530;2024-03-07T23:57:16;14.75;;;8.05;;
